createdAt,value
2017-11-03T00:01:07.924Z,10.10
2017-11-03T00:03:43.016Z,12.27
2017-11-03T00:06:17.915Z,12.40
2017-11-03T00:08:52.327Z,9.57
2017-11-03T00:11:26.855Z,14.10
2017-11-03T00:14:01.944Z,9.33
2017-11-03T00:16:37.023Z,8.90
2017-11-03T00:19:11.440Z,8.77
2017-11-03T00:21:46.007Z,9.27
2017-11-03T00:24:20.471Z,9.00
2017-11-03T00:26:55.463Z,10.23
2017-11-03T00:29:30.551Z,8.30
2017-11-03T00:32:05.631Z,10.37
2017-11-03T00:34:40.032Z,10.73
2017-11-03T00:37:14.827Z,10.37
2017-11-03T00:39:50.053Z,9.60
2017-11-03T00:42:25.152Z,10.80
2017-11-03T00:45:00.168Z,9.10
2017-11-03T00:47:35.324Z,10.07
2017-11-03T00:50:10.342Z,11.70
2017-11-03T00:52:45.860Z,9.60
2017-11-03T00:55:20.728Z,9.53
2017-11-03T00:57:55.740Z,10.23
2017-11-03T01:00:30.187Z,10.73
2017-11-03T01:03:05.504Z,10.17
2017-11-03T01:05:40.714Z,10.80
2017-11-03T01:08:15.675Z,13.10
2017-11-03T01:10:50.032Z,13.20
2017-11-03T01:13:25.447Z,19.30
2017-11-03T01:15:59.923Z,15.70
2017-11-03T01:18:34.813Z,11.43
2017-11-03T01:21:09.860Z,15.87
2017-11-03T01:23:45.107Z,15.03
2017-11-03T01:26:19.852Z,15.33
2017-11-03T01:28:54.984Z,15.73
2017-11-03T01:31:30.268Z,13.50
2017-11-03T01:34:05.625Z,14.87
2017-11-03T01:36:40.688Z,20.63
2017-11-03T01:39:15.897Z,13.80
2017-11-03T01:41:50.933Z,33.47
2017-11-03T01:44:26.035Z,19.50
2017-11-03T01:47:00.428Z,30.83
2017-11-03T01:49:35.920Z,29.80
2017-11-03T01:52:10.448Z,49.47
2017-11-03T01:54:45.908Z,28.73
2017-11-03T01:57:20.563Z,42.13
2017-11-03T01:59:55.292Z,33.30
2017-11-03T02:02:30.388Z,40.83
2017-11-03T02:05:05.125Z,36.37
2017-11-03T02:07:39.647Z,44.27
2017-11-03T02:10:14.879Z,51.97
2017-11-03T02:12:50.271Z,38.60
2017-11-03T02:15:24.702Z,32.40
2017-11-03T02:18:00.084Z,49.23
2017-11-03T02:20:35.052Z,41.73
2017-11-03T02:23:09.333Z,28.17
2017-11-03T02:25:43.818Z,41.30
2017-11-03T02:28:18.921Z,37.83
2017-11-03T02:30:53.731Z,27.03
2017-11-03T02:33:28.658Z,45.17
2017-11-03T02:36:04.004Z,39.13
2017-11-03T02:38:38.628Z,28.90
2017-11-03T02:41:12.796Z,27.30
2017-11-03T02:43:47.636Z,31.97
2017-11-03T02:46:23.036Z,31.37
2017-11-03T02:48:58.292Z,38.97
2017-11-03T02:51:33.655Z,33.63
2017-11-03T02:54:08.719Z,32.77
2017-11-03T02:56:43.719Z,35.90
2017-11-03T02:59:18.880Z,42.87
2017-11-03T03:01:53.796Z,33.13
2017-11-03T03:04:28.908Z,39.47
2017-11-03T03:07:04.237Z,38.90
2017-11-03T03:09:39.176Z,44.17
2017-11-03T03:12:14.328Z,44.03
2017-11-03T03:14:49.176Z,44.60
2017-11-03T03:17:23.607Z,46.40
2017-11-03T03:19:59.320Z,30.53
2017-11-03T03:22:33.973Z,40.63
2017-11-03T03:25:08.644Z,38.83
2017-11-03T03:27:42.990Z,39.30
2017-11-03T03:30:17.781Z,26.20
2017-11-03T03:32:52.636Z,32.00
2017-11-03T03:35:28.095Z,23.83
2017-11-03T03:38:02.866Z,33.50
2017-11-03T03:40:38.317Z,36.53
2017-11-03T03:43:12.672Z,28.13
2017-11-03T03:45:47.291Z,38.47
2017-11-03T03:48:21.924Z,27.70
2017-11-03T03:50:56.268Z,32.63
2017-11-03T03:53:30.463Z,28.70
2017-11-03T03:56:04.852Z,44.40
2017-11-03T03:58:40.080Z,29.00
2017-11-03T04:01:14.545Z,32.03
2017-11-03T04:03:50.119Z,38.37
2017-11-03T04:06:25.115Z,27.90
2017-11-03T04:08:59.991Z,50.77
2017-11-03T04:11:35.330Z,40.77
2017-11-03T04:14:10.444Z,32.10
2017-11-03T04:16:45.596Z,43.77
2017-11-03T04:19:20.460Z,35.03
2017-11-03T04:21:55.867Z,68.63
2017-11-03T04:24:31.204Z,49.37
2017-11-03T04:27:06.001Z,80.67
2017-11-03T04:29:40.668Z,58.93
2017-11-03T04:32:15.481Z,49.03
2017-11-03T04:34:49.618Z,44.63
2017-11-03T04:37:24.900Z,44.00
2017-11-03T04:39:59.716Z,38.83
2017-11-03T04:42:33.780Z,53.83
2017-11-03T04:45:09.103Z,45.40
2017-11-03T04:47:44.056Z,72.17
2017-11-03T04:50:18.616Z,59.67
2017-11-03T04:52:53.969Z,58.13
2017-11-03T04:55:28.746Z,49.53
2017-11-03T04:58:03.936Z,92.53
2017-11-03T05:00:39.409Z,53.13
2017-11-03T05:03:14.104Z,43.80
2017-11-03T05:05:49.147Z,50.83
2017-11-03T05:08:24.271Z,74.43
2017-11-03T05:10:59.672Z,46.13
2017-11-03T05:13:34.415Z,39.30
2017-11-03T05:16:09.680Z,47.43
2017-11-03T05:18:44.783Z,38.17
2017-11-03T05:21:19.884Z,41.20
2017-11-03T05:23:54.911Z,64.07
2017-11-03T05:26:30.044Z,64.37
2017-11-03T05:29:04.996Z,41.07
2017-11-03T05:31:39.511Z,46.57
2017-11-03T05:34:14.439Z,71.43
2017-11-03T05:36:49.111Z,50.37
2017-11-03T05:39:23.711Z,32.23
2017-11-03T05:41:58.404Z,36.13
2017-11-03T05:44:33.700Z,57.67
2017-11-03T05:47:08.181Z,43.30
2017-11-03T05:49:43.186Z,46.53
2017-11-03T05:52:18.215Z,42.50
2017-11-03T05:54:53.319Z,36.70
2017-11-03T05:57:28.036Z,39.47
2017-11-03T06:00:03.112Z,38.03
2017-11-03T06:02:37.865Z,31.20
2017-11-03T06:05:13.136Z,48.17
2017-11-03T06:07:48.271Z,57.60
2017-11-03T06:10:25.260Z,66.53
2017-11-03T06:13:00.872Z,52.87
2017-11-03T06:15:35.307Z,33.80
2017-11-03T06:18:10.024Z,31.60
2017-11-03T06:20:45.460Z,65.33
2017-11-03T06:23:20.338Z,34.27
2017-11-03T06:25:55.483Z,48.10
2017-11-03T06:28:30.069Z,33.77
2017-11-03T06:31:04.832Z,37.63
2017-11-03T06:33:40.171Z,54.23
2017-11-03T06:36:15.360Z,47.83
2017-11-03T06:38:49.595Z,46.33
2017-11-03T06:41:24.548Z,69.23
2017-11-03T06:43:58.868Z,46.47
2017-11-03T06:46:33.811Z,54.57
2017-11-03T06:49:07.916Z,41.13
2017-11-03T06:51:42.380Z,57.70
2017-11-03T06:54:17.152Z,59.03
2017-11-03T06:56:52.176Z,41.53
2017-11-03T06:59:26.444Z,48.03
2017-11-03T07:02:00.952Z,59.70
2017-11-03T07:04:36.336Z,53.80
2017-11-03T07:07:10.795Z,42.93
2017-11-03T07:09:45.287Z,86.90
2017-11-03T07:12:20.971Z,39.27
2017-11-03T07:14:55.379Z,25.23
2017-11-03T07:17:30.775Z,37.00
2017-11-03T07:20:05.543Z,38.27
2017-11-03T07:22:40.309Z,61.80
2017-11-03T07:25:15.240Z,45.97
2017-11-03T07:27:50.700Z,44.13
2017-11-03T07:30:25.963Z,38.70
2017-11-03T07:33:01.288Z,48.57
2017-11-03T07:35:35.981Z,35.67
2017-11-03T07:38:11.351Z,40.43
2017-11-03T07:40:45.949Z,29.60
2017-11-03T07:43:20.724Z,23.20
2017-11-03T07:45:55.264Z,21.30
2017-11-03T07:48:30.405Z,17.00
2017-11-03T07:51:04.879Z,21.53
2017-11-03T07:53:39.463Z,21.97
2017-11-03T07:56:14.748Z,21.50
2017-11-03T07:58:50.124Z,26.00
2017-11-03T08:01:24.839Z,28.90
2017-11-03T08:03:59.999Z,30.70
2017-11-03T08:06:34.521Z,25.37
2017-11-03T08:09:09.644Z,28.30
2017-11-03T08:11:44.786Z,22.27
2017-11-03T08:14:19.308Z,18.60
2017-11-03T08:16:53.828Z,19.60
2017-11-03T08:19:27.792Z,21.00
2017-11-03T08:22:03.072Z,20.23
2017-11-03T08:24:37.829Z,19.10
2017-11-03T08:27:13.143Z,25.77
2017-11-03T08:29:48.463Z,17.30
2017-11-03T08:32:23.785Z,26.80
2017-11-03T08:34:58.588Z,22.43
2017-11-03T08:37:33.274Z,24.53
2017-11-03T08:40:08.760Z,20.20
2017-11-03T08:42:43.968Z,21.50
2017-11-03T08:45:18.521Z,24.00
2017-11-03T08:47:53.392Z,23.97
2017-11-03T08:50:28.131Z,22.47
2017-11-03T08:53:02.512Z,21.53
2017-11-03T08:55:37.516Z,24.67
2017-11-03T08:58:13.228Z,23.90
2017-11-03T09:00:48.504Z,20.83
2017-11-03T09:03:23.271Z,21.63
2017-11-03T09:05:58.088Z,28.33
2017-11-03T09:08:33.429Z,24.17
2017-11-03T09:11:08.143Z,19.87
2017-11-03T09:13:43.379Z,27.63
2017-11-03T09:16:18.343Z,22.77
2017-11-03T09:18:53.043Z,23.07
2017-11-03T09:21:28.035Z,30.10
2017-11-03T09:24:02.916Z,24.83
2017-11-03T09:26:37.852Z,22.97
2017-11-03T09:29:12.900Z,25.03
2017-11-03T09:31:47.532Z,23.70
2017-11-03T09:34:22.585Z,20.80
2017-11-03T09:36:57.620Z,22.87
2017-11-03T09:39:31.699Z,25.30
2017-11-03T09:42:06.127Z,27.87
2017-11-03T09:44:40.294Z,27.10
2017-11-03T09:47:14.724Z,22.20
2017-11-03T09:49:49.036Z,25.90
2017-11-03T09:52:24.294Z,20.77
2017-11-03T09:54:59.299Z,24.40
2017-11-03T09:57:34.320Z,22.93
2017-11-03T10:00:09.640Z,19.30
2017-11-03T10:02:44.039Z,27.60
2017-11-03T10:05:18.847Z,24.90
2017-11-03T10:07:53.706Z,26.27
2017-11-03T10:10:28.215Z,19.83
2017-11-03T10:13:02.328Z,21.47
2017-11-03T10:15:37.416Z,18.47
2017-11-03T10:18:11.832Z,22.93
2017-11-03T10:20:46.583Z,22.70
2017-11-03T10:23:21.360Z,17.30
2017-11-03T10:25:55.946Z,18.63
2017-11-03T10:28:30.994Z,18.90
2017-11-03T10:31:06.808Z,18.13
2017-11-03T10:33:41.495Z,16.37
2017-11-03T10:36:15.904Z,17.33
2017-11-03T10:38:51.273Z,23.40
2017-11-03T10:41:25.995Z,19.50
2017-11-03T10:44:00.902Z,18.37
2017-11-03T10:46:35.001Z,19.10
2017-11-03T10:49:10.228Z,19.30
2017-11-03T10:51:44.920Z,18.00
2017-11-03T10:54:19.424Z,20.40
2017-11-03T10:56:53.964Z,20.90
2017-11-03T10:59:28.477Z,20.50
2017-11-03T11:02:02.824Z,17.60
2017-11-03T11:04:37.811Z,21.50
2017-11-03T11:07:12.516Z,21.57
2017-11-03T11:09:47.268Z,21.63
2017-11-03T11:12:22.661Z,20.60
2017-11-03T11:14:57.212Z,21.37
2017-11-03T11:17:32.600Z,21.40
2017-11-03T11:20:07.176Z,18.47
2017-11-03T11:22:42.571Z,27.90
2017-11-03T11:25:17.584Z,23.07
2017-11-03T11:27:52.736Z,27.63
2017-11-03T11:30:27.242Z,29.90
2017-11-03T11:33:02.056Z,29.80
2017-11-03T11:35:36.545Z,29.70
2017-11-03T11:38:11.025Z,30.93
2017-11-03T11:40:45.128Z,27.73
2017-11-03T11:43:19.896Z,29.30
2017-11-03T11:45:55.300Z,27.70
2017-11-03T11:48:30.249Z,26.03
2017-11-03T11:51:04.243Z,30.83
2017-11-03T11:53:39.028Z,31.90
2017-11-03T11:56:13.613Z,30.80
2017-11-03T11:58:48.474Z,32.20
2017-11-03T12:01:23.327Z,37.43
2017-11-03T12:03:58.192Z,36.97
2017-11-03T12:06:33.255Z,41.50
2017-11-03T12:09:07.413Z,38.80
2017-11-03T12:11:42.463Z,45.43
2017-11-03T12:14:17.443Z,45.17
2017-11-03T12:16:52.379Z,47.90
2017-11-03T12:19:27.656Z,47.77
2017-11-03T12:22:02.096Z,46.43
2017-11-03T12:24:37.024Z,49.93
2017-11-03T12:27:12.008Z,50.40
2017-11-03T12:29:47.116Z,55.57
2017-11-03T12:32:21.980Z,53.00
2017-11-03T12:34:57.032Z,52.80
2017-11-03T12:37:32.016Z,40.03
2017-11-03T12:40:06.920Z,47.97
2017-11-03T12:42:41.565Z,41.60
2017-11-03T12:45:16.324Z,47.20
2017-11-03T12:47:50.871Z,45.23
2017-11-03T12:50:24.979Z,41.63
2017-11-03T12:52:59.760Z,39.90
2017-11-03T12:55:34.736Z,45.83
2017-11-03T12:58:08.841Z,39.57
2017-11-03T13:00:43.893Z,43.87
2017-11-03T13:03:18.065Z,37.97
2017-11-03T13:05:52.488Z,43.27
2017-11-03T13:08:27.455Z,42.73
2017-11-03T13:11:01.562Z,43.53
2017-11-03T13:13:36.392Z,41.70
2017-11-03T13:16:11.534Z,43.93
2017-11-03T13:18:46.759Z,45.20
2017-11-03T13:21:21.179Z,47.00
2017-11-03T13:23:55.596Z,38.40
2017-11-03T13:26:29.736Z,45.67
2017-11-03T13:29:03.730Z,43.80
2017-11-03T13:31:38.138Z,38.47
2017-11-03T13:34:13.101Z,42.17
2017-11-03T13:36:47.405Z,42.63
2017-11-03T13:39:22.441Z,42.57
2017-11-03T13:41:57.195Z,41.40
2017-11-03T13:44:32.213Z,39.77
2017-11-03T13:47:07.056Z,51.13
2017-11-03T13:49:41.324Z,44.53
2017-11-03T13:52:16.192Z,42.23
2017-11-03T13:54:51.491Z,37.90
2017-11-03T13:57:25.563Z,49.90
2017-11-03T14:00:00.618Z,44.40
2017-11-03T14:02:35.649Z,46.10
2017-11-03T14:05:10.063Z,42.60
2017-11-03T14:07:45.597Z,50.17
2017-11-03T14:10:20.344Z,47.30
2017-11-03T14:12:55.279Z,48.90
2017-11-03T14:15:30.340Z,49.77
2017-11-03T14:18:05.764Z,44.17
2017-11-03T14:20:40.808Z,50.50
2017-11-03T14:23:16.079Z,46.53
2017-11-03T14:25:51.172Z,49.87
2017-11-03T14:28:26.083Z,47.87
2017-11-03T14:31:00.823Z,55.23
2017-11-03T14:33:35.956Z,53.30
2017-11-03T14:36:11.036Z,53.97
2017-11-03T14:38:46.227Z,49.37
2017-11-03T14:41:20.637Z,51.27
2017-11-03T14:43:55.627Z,50.20
2017-11-03T14:46:30.275Z,49.77
2017-11-03T14:49:05.280Z,53.63
2017-11-03T14:51:40.097Z,50.63
2017-11-03T14:54:14.936Z,50.10
2017-11-03T14:56:50.271Z,56.80
2017-11-03T14:59:25.284Z,50.43
2017-11-03T15:02:00.459Z,48.47
2017-11-03T15:04:34.945Z,43.00
2017-11-03T15:07:10.199Z,55.07
2017-11-03T15:09:45.600Z,51.67
2017-11-03T15:12:20.492Z,62.23
2017-11-03T15:14:55.416Z,63.10
2017-11-03T15:17:30.584Z,52.67
2017-11-03T15:20:05.265Z,55.97
2017-11-03T15:22:39.952Z,54.10
2017-11-03T15:25:14.775Z,52.07
2017-11-03T15:27:49.639Z,53.57
2017-11-03T15:30:23.959Z,61.03
2017-11-03T15:33:00.300Z,62.50
2017-11-03T15:35:34.902Z,52.20
2017-11-03T15:38:09.707Z,57.93
2017-11-03T15:40:44.289Z,55.37
2017-11-03T15:43:18.884Z,52.47
2017-11-03T15:45:54.032Z,47.87
2017-11-03T15:48:29.044Z,57.53
2017-11-03T15:51:03.644Z,47.60
2017-11-03T15:53:39.086Z,54.80
2017-11-03T15:56:14.636Z,48.70
2017-11-03T15:58:49.368Z,52.00
2017-11-03T16:01:24.291Z,51.83
2017-11-03T16:03:59.263Z,47.40
2017-11-03T16:06:34.672Z,50.10
2017-11-03T16:09:09.751Z,49.73
2017-11-03T16:11:44.331Z,49.43
2017-11-03T16:14:19.589Z,50.50
2017-11-03T16:16:54.845Z,53.03
2017-11-03T16:19:30.091Z,54.83
2017-11-03T16:22:04.708Z,55.47
2017-11-03T16:24:38.992Z,52.80
2017-11-03T16:27:14.271Z,47.63
2017-11-03T16:29:49.632Z,57.13
2017-11-03T16:32:24.955Z,48.27
2017-11-03T16:35:00.000Z,56.20
2017-11-03T16:37:35.265Z,51.17
2017-11-03T16:40:10.250Z,48.70
2017-11-03T16:42:45.271Z,48.83
2017-11-03T16:45:20.008Z,51.93
2017-11-03T16:47:54.292Z,54.97
2017-11-03T16:50:28.699Z,52.67
2017-11-03T16:53:03.191Z,53.53
2017-11-03T16:55:38.008Z,48.00
2017-11-03T16:58:13.237Z,50.30
2017-11-03T17:00:48.148Z,56.47
2017-11-03T17:03:23.379Z,45.83
2017-11-03T17:05:58.384Z,52.13
2017-11-03T17:08:33.188Z,51.20
2017-11-03T17:11:07.508Z,54.13
2017-11-03T17:13:41.975Z,120.73
2017-11-03T17:16:17.119Z,77.57
2017-11-03T17:18:52.293Z,64.47
2017-11-03T17:21:27.684Z,57.17
2017-11-03T17:24:02.595Z,49.60
2017-11-03T17:26:37.168Z,76.73
2017-11-03T17:29:12.038Z,66.47
2017-11-03T17:31:47.028Z,67.43
2017-11-03T17:34:22.051Z,51.80
2017-11-03T17:36:57.072Z,53.30
2017-11-03T17:39:32.415Z,52.90
2017-11-03T17:42:07.083Z,68.70
2017-11-03T17:44:41.407Z,49.60
2017-11-03T17:47:16.497Z,55.27
2017-11-03T17:49:52.124Z,48.70
2017-11-03T17:52:26.755Z,51.57
2017-11-03T17:55:01.636Z,49.60
2017-11-03T17:57:36.951Z,49.77
2017-11-03T18:00:11.743Z,45.23
2017-11-03T18:02:45.872Z,45.10
2017-11-03T18:05:20.496Z,42.30
2017-11-03T18:07:55.332Z,50.30
2017-11-03T18:10:30.055Z,50.00
2017-11-03T18:13:05.068Z,40.50
2017-11-03T18:15:39.476Z,43.33
2017-11-03T18:18:14.264Z,55.67
2017-11-03T18:20:49.686Z,52.37
2017-11-03T18:23:25.076Z,49.13
2017-11-03T18:26:00.228Z,49.37
2017-11-03T18:28:34.700Z,49.87
2017-11-03T18:31:09.153Z,45.77
2017-11-03T18:33:43.528Z,45.33
2017-11-03T18:36:18.071Z,42.43
2017-11-03T18:38:52.944Z,46.37
2017-11-03T18:41:28.060Z,45.10
2017-11-03T18:44:03.366Z,41.03
2017-11-03T18:46:38.627Z,42.67
2017-11-03T18:49:13.799Z,43.37
2017-11-03T18:51:48.550Z,44.80
2017-11-03T18:54:23.215Z,46.93
2017-11-03T18:56:58.175Z,58.47
2017-11-03T18:59:33.313Z,46.63
2017-11-03T19:02:18.143Z,40.37
2017-11-03T19:04:53.031Z,45.03
2017-11-03T19:07:27.670Z,42.93
2017-11-03T19:10:02.739Z,42.00
2017-11-03T19:12:37.528Z,44.93
2017-11-03T19:15:12.348Z,43.30
2017-11-03T19:17:47.566Z,43.70
2017-11-03T19:20:22.180Z,40.50
2017-11-03T19:22:57.119Z,40.50
2017-11-03T19:25:31.912Z,40.93
2017-11-03T19:28:07.392Z,39.30
2017-11-03T19:30:42.463Z,42.47
2017-11-03T19:33:17.631Z,42.43
2017-11-03T19:35:52.628Z,40.83
2017-11-03T19:38:27.577Z,45.53
2017-11-03T19:41:02.996Z,45.27
2017-11-03T19:43:38.361Z,43.30
2017-11-03T19:46:13.325Z,45.73
2017-11-03T19:48:48.440Z,39.17
2017-11-03T19:51:23.244Z,39.60
2017-11-03T19:53:58.558Z,39.77
2017-11-03T19:56:33.015Z,36.97
2017-11-03T19:59:08.276Z,46.47
2017-11-03T20:01:42.796Z,38.80
2017-11-03T20:04:17.616Z,36.27
2017-11-03T20:06:52.847Z,40.53
2017-11-03T20:09:27.951Z,38.73
2017-11-03T20:12:03.179Z,43.47
2017-11-03T20:14:37.992Z,40.83
2017-11-03T20:17:12.947Z,37.93
2017-11-03T20:19:47.508Z,40.87
2017-11-03T20:22:22.560Z,37.73
2017-11-03T20:24:57.540Z,38.87
2017-11-03T20:27:32.675Z,36.90
2017-11-03T20:30:07.931Z,43.97
2017-11-03T20:32:43.003Z,44.47
2017-11-03T20:35:18.245Z,35.57
2017-11-03T20:37:53.387Z,33.33
2017-11-03T20:40:28.048Z,39.30
2017-11-03T20:43:03.249Z,33.23
2017-11-03T20:45:38.579Z,39.60
2017-11-03T20:48:13.308Z,38.73
2017-11-03T20:50:48.564Z,39.37
2017-11-03T20:53:23.952Z,41.33
2017-11-03T20:55:58.939Z,32.90
2017-11-03T20:58:34.091Z,34.30
2017-11-03T21:01:09.176Z,39.40
2017-11-03T21:03:43.724Z,45.27
2017-11-03T21:06:18.900Z,41.03
2017-11-03T21:08:54.032Z,40.70
2017-11-03T21:11:28.879Z,38.83
2017-11-03T21:14:03.362Z,40.50
2017-11-03T21:16:38.695Z,37.70
2017-11-03T21:19:13.644Z,35.27
2017-11-03T21:21:48.779Z,37.87
2017-11-03T21:24:23.499Z,37.30
2017-11-03T21:26:58.352Z,38.80
2017-11-03T21:29:33.227Z,38.60
2017-11-03T21:32:08.089Z,35.23
2017-11-03T21:34:43.136Z,37.40
2017-11-03T21:37:17.580Z,44.83
2017-11-03T21:39:52.068Z,39.00
2017-11-03T21:42:27.129Z,40.33
2017-11-03T21:45:01.952Z,38.77
2017-11-03T21:47:36.664Z,37.60
2017-11-03T21:50:11.684Z,42.60
2017-11-03T21:52:46.763Z,39.20
2017-11-03T21:55:21.668Z,41.50
2017-11-03T21:57:56.820Z,48.63
2017-11-03T22:00:32.044Z,39.27
2017-11-03T22:03:06.578Z,37.90
2017-11-03T22:05:41.798Z,38.50
2017-11-03T22:08:17.036Z,37.73
2017-11-03T22:10:52.232Z,38.10
2017-11-03T22:13:27.268Z,40.03
2017-11-03T22:16:01.670Z,42.13
2017-11-03T22:18:36.873Z,38.37
2017-11-03T22:21:11.499Z,37.40
2017-11-03T22:23:46.225Z,40.73
2017-11-03T22:26:21.272Z,38.03
2017-11-03T22:28:55.787Z,45.10
2017-11-03T22:31:30.599Z,40.33
2017-11-03T22:34:04.644Z,43.77
2017-11-03T22:36:39.712Z,38.67
2017-11-03T22:39:14.723Z,42.00
2017-11-03T22:41:49.871Z,42.50
2017-11-03T22:44:25.212Z,44.10
2017-11-03T22:47:00.620Z,40.57
2017-11-03T22:49:36.075Z,39.33
2017-11-03T22:52:10.450Z,40.60
2017-11-03T22:54:45.567Z,39.30
2017-11-03T22:57:20.910Z,37.43
2017-11-03T22:59:56.032Z,37.90
2017-11-03T23:02:30.460Z,35.30
2017-11-03T23:05:05.868Z,39.37
2017-11-03T23:07:40.740Z,36.57
2017-11-03T23:10:16.068Z,42.90
2017-11-03T23:12:51.224Z,37.10
2017-11-03T23:15:25.924Z,36.87
2017-11-03T23:18:00.685Z,36.17
2017-11-03T23:20:35.556Z,41.27
2017-11-03T23:23:10.210Z,36.50
2017-11-03T23:25:45.366Z,38.07
2017-11-03T23:28:20.636Z,41.37
2017-11-03T23:30:55.056Z,40.87
2017-11-03T23:33:30.152Z,39.47
2017-11-03T23:36:04.875Z,40.53
2017-11-03T23:38:40.036Z,38.27
2017-11-03T23:41:14.936Z,37.70
2017-11-03T23:43:50.011Z,38.30
2017-11-03T23:46:24.988Z,37.90
2017-11-03T23:48:59.953Z,40.73
2017-11-03T23:51:34.775Z,39.87
2017-11-03T23:54:09.780Z,43.97
2017-11-03T23:56:44.535Z,37.03
2017-11-03T23:59:19.808Z,39.13
